sensor_id;sensor_type;location;lat;lon;timestamp;P1;durP1;ratioP1;P2;durP2;ratioP2
65373;SDS011;52070;53.760;9.678;2022-10-31T00:01:50;28.08;;;13.50;;
65373;SDS011;52070;53.760;9.678;2022-10-31T00:04:17;19.50;;;11.38;;
65373;SDS011;52070;53.760;9.678;2022-10-31T00:06:44;41.22;;;19.30;;
65373;SDS011;52070;53.760;9.678;2022-10-31T00:09:11;32.58;;;18.17;;
65373;SDS011;52070;53.760;9.678;2022-10-31T00:11:38;43.63;;;21.63;;
65373;SDS011;52070;53.760;9.678;2022-10-31T00:14:05;58.00;;;26.05;;
65373;SDS011;52070;53.760;9.678;2022-10-31T00:16:34;65.63;;;29.25;;
65373;SDS011;52070;53.760;9.678;2022-10-31T00:19:02;55.28;;;24.90;;
65373;SDS011;52070;53.760;9.678;2022-10-31T00:21:30;65.75;;;28.17;;
65373;SDS011;52070;53.760;9.678;2022-10-31T00:23:57;56.30;;;24.05;;
65373;SDS011;52070;53.760;9.678;2022-10-31T00:26:26;66.22;;;28.95;;
65373;SDS011;52070;53.760;9.678;2022-10-31T00:28:53;55.35;;;24.95;;
65373;SDS011;52070;53.760;9.678;2022-10-31T00:31:20;43.25;;;19.48;;
65373;SDS011;52070;53.760;9.678;2022-10-31T00:33:48;40.95;;;18.75;;
65373;SDS011;52070;53.760;9.678;2022-10-31T00:36:16;45.70;;;18.52;;
65373;SDS011;52070;53.760;9.678;2022-10-31T00:38:44;35.78;;;17.13;;
65373;SDS011;52070;53.760;9.678;2022-10-31T00:41:13;43.25;;;18.30;;
65373;SDS011;52070;53.760;9.678;2022-10-31T00:43:42;37.13;;;18.30;;
65373;SDS011;52070;53.760;9.678;2022-10-31T00:46:10;37.83;;;19.77;;
65373;SDS011;52070;53.760;9.678;2022-10-31T00:48:37;43.35;;;22.65;;
65373;SDS011;52070;53.760;9.678;2022-10-31T00:51:05;43.88;;;21.65;;
65373;SDS011;52070;53.760;9.678;2022-10-31T00:53:33;54.03;;;23.23;;
65373;SDS011;52070;53.760;9.678;2022-10-31T00:56:00;46.22;;;23.38;;
65373;SDS011;52070;53.760;9.678;2022-10-31T00:58:27;55.15;;;24.80;;
65373;SDS011;52070;53.760;9.678;2022-10-31T01:00:54;66.72;;;27.50;;
65373;SDS011;52070;53.760;9.678;2022-10-31T01:03:21;43.97;;;23.92;;
65373;SDS011;52070;53.760;9.678;2022-10-31T01:05:58;49.78;;;21.85;;
65373;SDS011;52070;53.760;9.678;2022-10-31T01:08:28;49.10;;;23.55;;
65373;SDS011;52070;53.760;9.678;2022-10-31T01:11:03;62.70;;;25.95;;
65373;SDS011;52070;53.760;9.678;2022-10-31T01:13:32;50.35;;;24.55;;
65373;SDS011;52070;53.760;9.678;2022-10-31T01:16:00;51.88;;;25.63;;
65373;SDS011;52070;53.760;9.678;2022-10-31T01:18:28;53.85;;;24.48;;
65373;SDS011;52070;53.760;9.678;2022-10-31T01:20:58;53.25;;;25.05;;
65373;SDS011;52070;53.760;9.678;2022-10-31T01:23:26;54.90;;;26.00;;
65373;SDS011;52070;53.760;9.678;2022-10-31T01:25:59;73.10;;;29.30;;
65373;SDS011;52070;53.760;9.678;2022-10-31T01:28:27;56.85;;;25.70;;
65373;SDS011;52070;53.760;9.678;2022-10-31T01:30:54;71.45;;;31.50;;
65373;SDS011;52070;53.760;9.678;2022-10-31T01:33:21;62.88;;;28.75;;
65373;SDS011;52070;53.760;9.678;2022-10-31T01:35:48;60.97;;;28.08;;
65373;SDS011;52070;53.760;9.678;2022-10-31T01:38:15;74.38;;;31.45;;
65373;SDS011;52070;53.760;9.678;2022-10-31T01:40:43;84.22;;;32.28;;
65373;SDS011;52070;53.760;9.678;2022-10-31T01:43:11;86.85;;;34.67;;
65373;SDS011;52070;53.760;9.678;2022-10-31T01:45:40;75.60;;;31.98;;
65373;SDS011;52070;53.760;9.678;2022-10-31T01:48:10;90.95;;;35.42;;
65373;SDS011;52070;53.760;9.678;2022-10-31T01:50:40;98.60;;;36.13;;
65373;SDS011;52070;53.760;9.678;2022-10-31T01:53:09;91.43;;;34.80;;
65373;SDS011;52070;53.760;9.678;2022-10-31T01:55:38;95.75;;;35.88;;
65373;SDS011;52070;53.760;9.678;2022-10-31T01:58:08;109.07;;;37.15;;
65373;SDS011;52070;53.760;9.678;2022-10-31T02:00:38;93.93;;;36.20;;
65373;SDS011;52070;53.760;9.678;2022-10-31T02:03:05;101.68;;;35.65;;
65373;SDS011;52070;53.760;9.678;2022-10-31T02:05:32;94.30;;;34.90;;
65373;SDS011;52070;53.760;9.678;2022-10-31T02:08:01;97.97;;;35.65;;
65373;SDS011;52070;53.760;9.678;2022-10-31T02:10:31;82.50;;;32.85;;
65373;SDS011;52070;53.760;9.678;2022-10-31T02:13:01;95.10;;;33.38;;
65373;SDS011;52070;53.760;9.678;2022-10-31T02:15:32;92.93;;;34.20;;
65373;SDS011;52070;53.760;9.678;2022-10-31T02:17:59;101.75;;;36.03;;
65373;SDS011;52070;53.760;9.678;2022-10-31T02:20:27;107.13;;;35.30;;
65373;SDS011;52070;53.760;9.678;2022-10-31T02:23:10;98.47;;;37.08;;
65373;SDS011;52070;53.760;9.678;2022-10-31T02:26:02;89.15;;;36.10;;
65373;SDS011;52070;53.760;9.678;2022-10-31T02:28:45;94.88;;;36.40;;
65373;SDS011;52070;53.760;9.678;2022-10-31T02:34:02;81.15;;;33.22;;
65373;SDS011;52070;53.760;9.678;2022-10-31T02:36:38;92.65;;;33.40;;
65373;SDS011;52070;53.760;9.678;2022-10-31T02:39:11;90.95;;;33.67;;
65373;SDS011;52070;53.760;9.678;2022-10-31T02:41:45;89.13;;;34.75;;
65373;SDS011;52070;53.760;9.678;2022-10-31T02:44:16;96.82;;;34.15;;
65373;SDS011;52070;53.760;9.678;2022-10-31T02:46:51;86.68;;;33.45;;
65373;SDS011;52070;53.760;9.678;2022-10-31T02:49:22;78.65;;;31.73;;
65373;SDS011;52070;53.760;9.678;2022-10-31T02:51:53;84.07;;;33.58;;
65373;SDS011;52070;53.760;9.678;2022-10-31T02:54:23;86.25;;;33.28;;
65373;SDS011;52070;53.760;9.678;2022-10-31T02:56:51;70.30;;;30.98;;
65373;SDS011;52070;53.760;9.678;2022-10-31T02:59:23;89.65;;;31.65;;
65373;SDS011;52070;53.760;9.678;2022-10-31T03:02:02;85.35;;;33.00;;
65373;SDS011;52070;53.760;9.678;2022-10-31T03:04:42;87.63;;;31.40;;
65373;SDS011;52070;53.760;9.678;2022-10-31T03:07:21;103.55;;;35.53;;
65373;SDS011;52070;53.760;9.678;2022-10-31T03:09:57;89.38;;;33.47;;
65373;SDS011;52070;53.760;9.678;2022-10-31T03:12:33;82.40;;;33.63;;
65373;SDS011;52070;53.760;9.678;2022-10-31T03:15:08;86.63;;;33.75;;
65373;SDS011;52070;53.760;9.678;2022-10-31T03:17:45;87.63;;;34.88;;
65373;SDS011;52070;53.760;9.678;2022-10-31T03:20:19;89.97;;;33.25;;
65373;SDS011;52070;53.760;9.678;2022-10-31T03:22:48;97.43;;;35.58;;
65373;SDS011;52070;53.760;9.678;2022-10-31T03:25:16;90.28;;;34.10;;
65373;SDS011;52070;53.760;9.678;2022-10-31T03:27:43;81.22;;;32.97;;
65373;SDS011;52070;53.760;9.678;2022-10-31T03:30:12;91.70;;;32.75;;
65373;SDS011;52070;53.760;9.678;2022-10-31T03:32:40;99.97;;;35.47;;
65373;SDS011;52070;53.760;9.678;2022-10-31T03:35:14;92.00;;;33.17;;
65373;SDS011;52070;53.760;9.678;2022-10-31T03:37:44;94.90;;;34.03;;
65373;SDS011;52070;53.760;9.678;2022-10-31T03:40:13;87.75;;;32.58;;
65373;SDS011;52070;53.760;9.678;2022-10-31T03:42:43;101.50;;;34.00;;
65373;SDS011;52070;53.760;9.678;2022-10-31T03:45:15;88.35;;;33.40;;
65373;SDS011;52070;53.760;9.678;2022-10-31T03:47:48;85.97;;;33.42;;
65373;SDS011;52070;53.760;9.678;2022-10-31T03:50:16;82.70;;;33.30;;
65373;SDS011;52070;53.760;9.678;2022-10-31T03:52:44;109.75;;;34.80;;
65373;SDS011;52070;53.760;9.678;2022-10-31T03:55:17;128.52;;;38.67;;
65373;SDS011;52070;53.760;9.678;2022-10-31T03:57:48;116.00;;;36.10;;
65373;SDS011;52070;53.760;9.678;2022-10-31T04:00:19;109.03;;;36.75;;
65373;SDS011;52070;53.760;9.678;2022-10-31T04:02:49;148.25;;;39.03;;
65373;SDS011;52070;53.760;9.678;2022-10-31T04:05:20;133.88;;;38.72;;
65373;SDS011;52070;53.760;9.678;2022-10-31T04:07:49;123.50;;;38.15;;
65373;SDS011;52070;53.760;9.678;2022-10-31T04:10:19;148.65;;;40.95;;
65373;SDS011;52070;53.760;9.678;2022-10-31T04:12:50;134.23;;;36.77;;
65373;SDS011;52070;53.760;9.678;2022-10-31T04:15:21;137.32;;;39.63;;
65373;SDS011;52070;53.760;9.678;2022-10-31T04:17:52;155.38;;;41.03;;
65373;SDS011;52070;53.760;9.678;2022-10-31T04:20:29;139.40;;;39.70;;
65373;SDS011;52070;53.760;9.678;2022-10-31T04:22:56;126.55;;;37.65;;
65373;SDS011;52070;53.760;9.678;2022-10-31T04:25:23;109.50;;;36.05;;
65373;SDS011;52070;53.760;9.678;2022-10-31T04:27:50;115.22;;;37.15;;
65373;SDS011;52070;53.760;9.678;2022-10-31T04:30:17;117.05;;;35.50;;
65373;SDS011;52070;53.760;9.678;2022-10-31T04:32:44;95.47;;;33.60;;
65373;SDS011;52070;53.760;9.678;2022-10-31T04:35:13;130.48;;;36.05;;
65373;SDS011;52070;53.760;9.678;2022-10-31T04:37:40;162.43;;;36.72;;
65373;SDS011;52070;53.760;9.678;2022-10-31T04:40:07;209.80;;;34.70;;
65373;SDS011;52070;53.760;9.678;2022-10-31T04:42:35;424.95;;;35.20;;
65373;SDS011;52070;53.760;9.678;2022-10-31T04:45:02;407.88;;;34.85;;
65373;SDS011;52070;53.760;9.678;2022-10-31T04:47:30;163.60;;;28.13;;
65373;SDS011;52070;53.760;9.678;2022-10-31T04:49:58;480.27;;;35.97;;
65373;SDS011;52070;53.760;9.678;2022-10-31T04:52:27;248.65;;;31.27;;
65373;SDS011;52070;53.760;9.678;2022-10-31T04:54:54;215.82;;;30.38;;
65373;SDS011;52070;53.760;9.678;2022-10-31T04:57:21;417.00;;;34.00;;
65373;SDS011;52070;53.760;9.678;2022-10-31T04:59:48;442.02;;;36.75;;
65373;SDS011;52070;53.760;9.678;2022-10-31T05:02:15;390.90;;;34.58;;
65373;SDS011;52070;53.760;9.678;2022-10-31T05:04:42;120.47;;;30.88;;
65373;SDS011;52070;53.760;9.678;2022-10-31T05:07:09;513.83;;;39.78;;
65373;SDS011;52070;53.760;9.678;2022-10-31T05:09:37;414.63;;;35.58;;
65373;SDS011;52070;53.760;9.678;2022-10-31T05:12:04;375.65;;;34.83;;
65373;SDS011;52070;53.760;9.678;2022-10-31T05:14:31;196.50;;;32.90;;
65373;SDS011;52070;53.760;9.678;2022-10-31T05:16:58;246.45;;;32.20;;
65373;SDS011;52070;53.760;9.678;2022-10-31T05:19:25;110.63;;;30.67;;
65373;SDS011;52070;53.760;9.678;2022-10-31T05:21:52;109.45;;;27.85;;
65373;SDS011;52070;53.760;9.678;2022-10-31T05:24:19;420.63;;;34.92;;
65373;SDS011;52070;53.760;9.678;2022-10-31T05:26:48;272.88;;;33.47;;
65373;SDS011;52070;53.760;9.678;2022-10-31T05:29:16;313.83;;;31.88;;
65373;SDS011;52070;53.760;9.678;2022-10-31T05:31:43;306.85;;;32.92;;
65373;SDS011;52070;53.760;9.678;2022-10-31T05:34:10;199.00;;;30.33;;
65373;SDS011;52070;53.760;9.678;2022-10-31T05:36:37;492.92;;;37.72;;
65373;SDS011;52070;53.760;9.678;2022-10-31T05:39:03;123.70;;;27.88;;
65373;SDS011;52070;53.760;9.678;2022-10-31T05:41:30;440.35;;;33.92;;
65373;SDS011;52070;53.760;9.678;2022-10-31T05:43:59;169.68;;;28.63;;
65373;SDS011;52070;53.760;9.678;2022-10-31T05:46:26;321.20;;;30.90;;
65373;SDS011;52070;53.760;9.678;2022-10-31T05:48:53;420.17;;;31.98;;
65373;SDS011;52070;53.760;9.678;2022-10-31T05:51:20;293.60;;;30.60;;
65373;SDS011;52070;53.760;9.678;2022-10-31T05:53:47;289.13;;;29.75;;
65373;SDS011;52070;53.760;9.678;2022-10-31T05:56:13;375.58;;;30.27;;
65373;SDS011;52070;53.760;9.678;2022-10-31T05:58:40;340.88;;;29.50;;
65373;SDS011;52070;53.760;9.678;2022-10-31T06:01:09;396.55;;;31.00;;
65373;SDS011;52070;53.760;9.678;2022-10-31T06:03:36;104.78;;;25.33;;
65373;SDS011;52070;53.760;9.678;2022-10-31T06:06:03;136.00;;;26.17;;
65373;SDS011;52070;53.760;9.678;2022-10-31T06:08:30;165.50;;;27.42;;
65373;SDS011;52070;53.760;9.678;2022-10-31T06:10:57;312.73;;;29.17;;
65373;SDS011;52070;53.760;9.678;2022-10-31T06:13:24;250.02;;;29.20;;
65373;SDS011;52070;53.760;9.678;2022-10-31T06:15:51;431.70;;;32.75;;
65373;SDS011;52070;53.760;9.678;2022-10-31T06:18:19;323.25;;;30.88;;
65373;SDS011;52070;53.760;9.678;2022-10-31T06:20:46;194.38;;;27.25;;
65373;SDS011;52070;53.760;9.678;2022-10-31T06:23:13;438.98;;;33.55;;
65373;SDS011;52070;53.760;9.678;2022-10-31T06:25:40;317.25;;;33.28;;
65373;SDS011;52070;53.760;9.678;2022-10-31T06:28:07;371.60;;;33.15;;
65373;SDS011;52070;53.760;9.678;2022-10-31T06:30:34;384.17;;;33.80;;
65373;SDS011;52070;53.760;9.678;2022-10-31T06:33:01;423.63;;;35.10;;
65373;SDS011;52070;53.760;9.678;2022-10-31T06:35:31;283.05;;;34.53;;
65373;SDS011;52070;53.760;9.678;2022-10-31T06:37:58;405.10;;;33.88;;
65373;SDS011;52070;53.760;9.678;2022-10-31T06:40:25;290.00;;;33.70;;
65373;SDS011;52070;53.760;9.678;2022-10-31T06:42:56;409.17;;;32.95;;
65373;SDS011;52070;53.760;9.678;2022-10-31T06:45:24;255.93;;;28.88;;
65373;SDS011;52070;53.760;9.678;2022-10-31T06:47:51;298.45;;;30.95;;
65373;SDS011;52070;53.760;9.678;2022-10-31T06:50:18;358.77;;;31.65;;
65373;SDS011;52070;53.760;9.678;2022-10-31T06:52:51;536.47;;;34.38;;
65373;SDS011;52070;53.760;9.678;2022-10-31T06:55:18;437.23;;;33.10;;
65373;SDS011;52070;53.760;9.678;2022-10-31T06:57:50;152.25;;;28.90;;
65373;SDS011;52070;53.760;9.678;2022-10-31T07:00:18;99.88;;;27.38;;
65373;SDS011;52070;53.760;9.678;2022-10-31T07:02:52;429.35;;;34.65;;
65373;SDS011;52070;53.760;9.678;2022-10-31T07:05:20;186.45;;;28.15;;
65373;SDS011;52070;53.760;9.678;2022-10-31T07:07:47;441.15;;;35.85;;
65373;SDS011;52070;53.760;9.678;2022-10-31T07:10:15;265.25;;;31.77;;
65373;SDS011;52070;53.760;9.678;2022-10-31T07:12:42;397.75;;;35.00;;
65373;SDS011;52070;53.760;9.678;2022-10-31T07:15:09;432.90;;;33.13;;
65373;SDS011;52070;53.760;9.678;2022-10-31T07:17:36;367.13;;;33.35;;
65373;SDS011;52070;53.760;9.678;2022-10-31T07:20:04;96.57;;;28.08;;
65373;SDS011;52070;53.760;9.678;2022-10-31T07:22:32;359.52;;;33.78;;
65373;SDS011;52070;53.760;9.678;2022-10-31T07:25:00;293.58;;;31.65;;
65373;SDS011;52070;53.760;9.678;2022-10-31T07:27:28;411.98;;;30.35;;
65373;SDS011;52070;53.760;9.678;2022-10-31T07:29:55;159.20;;;28.02;;
65373;SDS011;52070;53.760;9.678;2022-10-31T07:32:22;538.95;;;36.47;;
65373;SDS011;52070;53.760;9.678;2022-10-31T07:34:49;377.42;;;33.42;;
65373;SDS011;52070;53.760;9.678;2022-10-31T07:37:16;390.65;;;30.73;;
65373;SDS011;52070;53.760;9.678;2022-10-31T07:39:43;331.67;;;32.25;;
65373;SDS011;52070;53.760;9.678;2022-10-31T07:42:10;149.93;;;26.38;;
65373;SDS011;52070;53.760;9.678;2022-10-31T07:44:38;251.48;;;27.95;;
65373;SDS011;52070;53.760;9.678;2022-10-31T07:47:05;279.60;;;25.90;;
65373;SDS011;52070;53.760;9.678;2022-10-31T07:49:32;359.75;;;27.95;;
65373;SDS011;52070;53.760;9.678;2022-10-31T07:51:59;323.13;;;25.25;;
65373;SDS011;52070;53.760;9.678;2022-10-31T07:54:26;189.57;;;22.45;;
65373;SDS011;52070;53.760;9.678;2022-10-31T07:56:53;356.42;;;23.10;;
65373;SDS011;52070;53.760;9.678;2022-10-31T07:59:20;442.70;;;23.55;;
65373;SDS011;52070;53.760;9.678;2022-10-31T08:01:48;183.05;;;18.88;;
65373;SDS011;52070;53.760;9.678;2022-10-31T08:04:15;178.77;;;18.48;;
65373;SDS011;52070;53.760;9.678;2022-10-31T08:06:42;35.75;;;16.80;;
65373;SDS011;52070;53.760;9.678;2022-10-31T08:09:09;270.20;;;21.17;;
65373;SDS011;52070;53.760;9.678;2022-10-31T08:11:36;60.17;;;18.30;;
65373;SDS011;52070;53.760;9.678;2022-10-31T08:14:03;172.18;;;20.13;;
65373;SDS011;52070;53.760;9.678;2022-10-31T08:16:30;64.45;;;18.67;;
65373;SDS011;52070;53.760;9.678;2022-10-31T08:18:58;40.53;;;19.02;;
65373;SDS011;52070;53.760;9.678;2022-10-31T08:21:25;37.10;;;18.98;;
65373;SDS011;52070;53.760;9.678;2022-10-31T08:23:52;129.48;;;21.73;;
65373;SDS011;52070;53.760;9.678;2022-10-31T08:26:19;61.78;;;19.58;;
65373;SDS011;52070;53.760;9.678;2022-10-31T08:28:46;71.43;;;19.05;;
65373;SDS011;52070;53.760;9.678;2022-10-31T08:31:15;215.63;;;23.00;;
65373;SDS011;52070;53.760;9.678;2022-10-31T08:33:42;193.38;;;24.38;;
65373;SDS011;52070;53.760;9.678;2022-10-31T08:36:10;44.35;;;20.40;;
65373;SDS011;52070;53.760;9.678;2022-10-31T08:38:37;82.78;;;20.98;;
65373;SDS011;52070;53.760;9.678;2022-10-31T08:41:04;223.07;;;24.13;;
65373;SDS011;52070;53.760;9.678;2022-10-31T08:43:31;90.78;;;21.40;;
65373;SDS011;52070;53.760;9.678;2022-10-31T08:45:58;77.05;;;21.27;;
65373;SDS011;52070;53.760;9.678;2022-10-31T08:48:25;134.82;;;23.60;;
65373;SDS011;52070;53.760;9.678;2022-10-31T08:50:55;80.57;;;22.30;;
65373;SDS011;52070;53.760;9.678;2022-10-31T08:53:27;134.43;;;23.30;;
65373;SDS011;52070;53.760;9.678;2022-10-31T08:55:55;49.53;;;20.85;;
65373;SDS011;52070;53.760;9.678;2022-10-31T08:58:22;52.75;;;21.27;;
65373;SDS011;52070;53.760;9.678;2022-10-31T09:00:51;127.90;;;22.52;;
65373;SDS011;52070;53.760;9.678;2022-10-31T09:03:19;78.20;;;21.55;;
65373;SDS011;52070;53.760;9.678;2022-10-31T09:05:48;47.47;;;21.30;;
65373;SDS011;52070;53.760;9.678;2022-10-31T09:08:16;76.93;;;21.95;;
65373;SDS011;52070;53.760;9.678;2022-10-31T09:10:44;58.50;;;23.15;;
65373;SDS011;52070;53.760;9.678;2022-10-31T09:13:12;61.30;;;21.60;;
65373;SDS011;52070;53.760;9.678;2022-10-31T09:15:42;44.25;;;21.80;;
65373;SDS011;52070;53.760;9.678;2022-10-31T09:18:10;44.88;;;22.98;;
65373;SDS011;52070;53.760;9.678;2022-10-31T09:20:38;42.72;;;22.08;;
65373;SDS011;52070;53.760;9.678;2022-10-31T09:23:08;40.55;;;21.75;;
65373;SDS011;52070;53.760;9.678;2022-10-31T09:25:38;41.72;;;22.85;;
65373;SDS011;52070;53.760;9.678;2022-10-31T09:28:08;39.08;;;22.38;;
65373;SDS011;52070;53.760;9.678;2022-10-31T09:30:37;44.00;;;21.40;;
65373;SDS011;52070;53.760;9.678;2022-10-31T09:33:05;46.47;;;22.15;;
65373;SDS011;52070;53.760;9.678;2022-10-31T09:38:03;44.85;;;21.73;;
65373;SDS011;52070;53.760;9.678;2022-10-31T09:40:32;43.63;;;22.90;;
65373;SDS011;52070;53.760;9.678;2022-10-31T09:43:03;41.72;;;22.27;;
65373;SDS011;52070;53.760;9.678;2022-10-31T09:45:41;46.90;;;21.83;;
65373;SDS011;52070;53.760;9.678;2022-10-31T09:48:19;41.33;;;20.92;;
65373;SDS011;52070;53.760;9.678;2022-10-31T09:50:53;41.88;;;20.67;;
65373;SDS011;52070;53.760;9.678;2022-10-31T09:53:26;44.17;;;23.80;;
65373;SDS011;52070;53.760;9.678;2022-10-31T09:55:58;42.20;;;22.02;;
65373;SDS011;52070;53.760;9.678;2022-10-31T09:58:27;43.72;;;22.17;;
65373;SDS011;52070;53.760;9.678;2022-10-31T10:00:56;41.72;;;20.75;;
65373;SDS011;52070;53.760;9.678;2022-10-31T10:03:28;36.17;;;20.20;;
65373;SDS011;52070;53.760;9.678;2022-10-31T10:06:01;41.00;;;20.75;;
65373;SDS011;52070;53.760;9.678;2022-10-31T10:08:35;47.67;;;21.95;;
65373;SDS011;52070;53.760;9.678;2022-10-31T10:11:07;47.58;;;20.05;;
65373;SDS011;52070;53.760;9.678;2022-10-31T10:13:50;43.10;;;18.70;;
65373;SDS011;52070;53.760;9.678;2022-10-31T10:16:28;33.85;;;16.45;;
65373;SDS011;52070;53.760;9.678;2022-10-31T10:19:10;25.88;;;12.80;;
65373;SDS011;52070;53.760;9.678;2022-10-31T10:21:48;33.00;;;15.10;;
65373;SDS011;52070;53.760;9.678;2022-10-31T10:24:27;25.63;;;13.45;;
65373;SDS011;52070;53.760;9.678;2022-10-31T10:27:03;20.47;;;9.80;;
65373;SDS011;52070;53.760;9.678;2022-10-31T10:29:40;30.27;;;14.02;;
65373;SDS011;52070;53.760;9.678;2022-10-31T10:32:14;26.73;;;11.52;;
65373;SDS011;52070;53.760;9.678;2022-10-31T10:34:47;23.92;;;12.43;;
65373;SDS011;52070;53.760;9.678;2022-10-31T10:39:49;25.73;;;10.90;;
65373;SDS011;52070;53.760;9.678;2022-10-31T10:42:19;28.40;;;10.32;;
65373;SDS011;52070;53.760;9.678;2022-10-31T10:45:13;28.75;;;9.98;;
65373;SDS011;52070;53.760;9.678;2022-10-31T10:48:02;20.33;;;9.18;;
65373;SDS011;52070;53.760;9.678;2022-10-31T10:50:36;22.02;;;8.10;;
65373;SDS011;52070;53.760;9.678;2022-10-31T10:53:11;13.10;;;6.40;;
65373;SDS011;52070;53.760;9.678;2022-10-31T10:55:58;19.92;;;7.43;;
65373;SDS011;52070;53.760;9.678;2022-10-31T10:58:28;13.63;;;4.68;;
65373;SDS011;52070;53.760;9.678;2022-10-31T11:00:57;13.10;;;3.70;;
65373;SDS011;52070;53.760;9.678;2022-10-31T11:03:24;10.13;;;3.35;;
65373;SDS011;52070;53.760;9.678;2022-10-31T11:05:51;7.90;;;2.42;;
65373;SDS011;52070;53.760;9.678;2022-10-31T11:08:23;13.85;;;3.13;;
65373;SDS011;52070;53.760;9.678;2022-10-31T11:10:58;13.85;;;3.75;;
65373;SDS011;52070;53.760;9.678;2022-10-31T11:13:27;10.63;;;3.05;;
65373;SDS011;52070;53.760;9.678;2022-10-31T11:16:00;10.60;;;3.20;;
65373;SDS011;52070;53.760;9.678;2022-10-31T11:18:30;9.93;;;3.55;;
65373;SDS011;52070;53.760;9.678;2022-10-31T11:20:59;11.23;;;3.10;;
65373;SDS011;52070;53.760;9.678;2022-10-31T11:23:29;13.38;;;3.55;;
65373;SDS011;52070;53.760;9.678;2022-10-31T11:25:58;12.85;;;4.25;;
65373;SDS011;52070;53.760;9.678;2022-10-31T11:28:27;12.07;;;4.45;;
65373;SDS011;52070;53.760;9.678;2022-10-31T11:30:56;12.63;;;4.40;;
65373;SDS011;52070;53.760;9.678;2022-10-31T11:33:28;14.15;;;4.95;;
65373;SDS011;52070;53.760;9.678;2022-10-31T11:35:58;12.20;;;4.78;;
65373;SDS011;52070;53.760;9.678;2022-10-31T11:38:29;10.10;;;4.68;;
65373;SDS011;52070;53.760;9.678;2022-10-31T11:41:03;16.83;;;4.80;;
65373;SDS011;52070;53.760;9.678;2022-10-31T11:43:37;11.80;;;4.68;;
65373;SDS011;52070;53.760;9.678;2022-10-31T11:46:08;14.23;;;4.90;;
65373;SDS011;52070;53.760;9.678;2022-10-31T11:48:38;17.48;;;5.30;;
65373;SDS011;52070;53.760;9.678;2022-10-31T11:51:05;16.70;;;5.68;;
65373;SDS011;52070;53.760;9.678;2022-10-31T11:53:34;16.58;;;5.28;;
65373;SDS011;52070;53.760;9.678;2022-10-31T11:56:03;16.75;;;5.80;;
65373;SDS011;52070;53.760;9.678;2022-10-31T11:58:32;22.00;;;5.53;;
65373;SDS011;52070;53.760;9.678;2022-10-31T12:00:59;13.88;;;5.75;;
65373;SDS011;52070;53.760;9.678;2022-10-31T12:03:28;10.90;;;4.82;;
65373;SDS011;52070;53.760;9.678;2022-10-31T12:06:06;8.73;;;4.65;;
65373;SDS011;52070;53.760;9.678;2022-10-31T12:08:36;9.85;;;4.70;;
65373;SDS011;52070;53.760;9.678;2022-10-31T12:11:08;17.40;;;5.45;;
65373;SDS011;52070;53.760;9.678;2022-10-31T12:13:49;12.05;;;4.55;;
65373;SDS011;52070;53.760;9.678;2022-10-31T12:16:26;12.45;;;4.32;;
65373;SDS011;52070;53.760;9.678;2022-10-31T12:19:01;10.15;;;4.00;;
65373;SDS011;52070;53.760;9.678;2022-10-31T12:21:38;8.85;;;2.97;;
65373;SDS011;52070;53.760;9.678;2022-10-31T12:24:18;10.75;;;3.72;;
65373;SDS011;52070;53.760;9.678;2022-10-31T12:26:59;9.55;;;3.97;;
65373;SDS011;52070;53.760;9.678;2022-10-31T12:29:45;12.32;;;3.53;;
65373;SDS011;52070;53.760;9.678;2022-10-31T12:32:29;13.40;;;4.40;;
65373;SDS011;52070;53.760;9.678;2022-10-31T12:35:05;8.95;;;3.30;;
65373;SDS011;52070;53.760;9.678;2022-10-31T12:37:50;12.20;;;3.70;;
65373;SDS011;52070;53.760;9.678;2022-10-31T12:40:32;10.18;;;3.13;;
65373;SDS011;52070;53.760;9.678;2022-10-31T12:43:13;11.13;;;3.53;;
65373;SDS011;52070;53.760;9.678;2022-10-31T12:45:52;13.13;;;3.53;;
65373;SDS011;52070;53.760;9.678;2022-10-31T12:51:19;6.95;;;3.60;;
65373;SDS011;52070;53.760;9.678;2022-10-31T12:53:55;10.93;;;3.83;;
65373;SDS011;52070;53.760;9.678;2022-10-31T12:56:39;11.10;;;3.65;;
65373;SDS011;52070;53.760;9.678;2022-10-31T12:59:20;10.02;;;3.40;;
65373;SDS011;52070;53.760;9.678;2022-10-31T13:01:53;9.95;;;3.47;;
65373;SDS011;52070;53.760;9.678;2022-10-31T13:04:30;7.90;;;4.03;;
65373;SDS011;52070;53.760;9.678;2022-10-31T13:07:05;16.05;;;4.10;;
65373;SDS011;52070;53.760;9.678;2022-10-31T13:09:41;9.93;;;3.72;;
65373;SDS011;52070;53.760;9.678;2022-10-31T13:12:13;9.10;;;4.07;;
65373;SDS011;52070;53.760;9.678;2022-10-31T13:14:44;9.70;;;3.85;;
65373;SDS011;52070;53.760;9.678;2022-10-31T13:17:18;8.57;;;3.60;;
65373;SDS011;52070;53.760;9.678;2022-10-31T13:19:50;7.40;;;3.10;;
65373;SDS011;52070;53.760;9.678;2022-10-31T13:22:20;12.75;;;3.90;;
65373;SDS011;52070;53.760;9.678;2022-10-31T13:24:52;10.38;;;3.95;;
65373;SDS011;52070;53.760;9.678;2022-10-31T13:27:22;12.20;;;4.38;;
65373;SDS011;52070;53.760;9.678;2022-10-31T13:29:56;11.40;;;4.30;;
65373;SDS011;52070;53.760;9.678;2022-10-31T13:32:28;11.60;;;4.60;;
65373;SDS011;52070;53.760;9.678;2022-10-31T13:35:02;10.75;;;4.18;;
65373;SDS011;52070;53.760;9.678;2022-10-31T13:37:32;10.38;;;4.38;;
65373;SDS011;52070;53.760;9.678;2022-10-31T13:40:09;10.75;;;6.25;;
65373;SDS011;52070;53.760;9.678;2022-10-31T13:42:48;12.73;;;6.05;;
65373;SDS011;52070;53.760;9.678;2022-10-31T13:45:22;12.98;;;6.50;;
65373;SDS011;52070;53.760;9.678;2022-10-31T13:47:57;12.77;;;6.00;;
65373;SDS011;52070;53.760;9.678;2022-10-31T13:50:26;12.20;;;7.07;;
65373;SDS011;52070;53.760;9.678;2022-10-31T13:53:09;17.10;;;7.75;;
65373;SDS011;52070;53.760;9.678;2022-10-31T13:55:40;11.70;;;6.95;;
65373;SDS011;52070;53.760;9.678;2022-10-31T14:00:59;12.30;;;6.63;;
65373;SDS011;52070;53.760;9.678;2022-10-31T14:03:39;10.50;;;7.25;;
65373;SDS011;52070;53.760;9.678;2022-10-31T14:06:07;12.68;;;6.90;;
65373;SDS011;52070;53.760;9.678;2022-10-31T14:08:36;11.10;;;6.35;;
65373;SDS011;52070;53.760;9.678;2022-10-31T14:11:08;17.08;;;7.10;;
65373;SDS011;52070;53.760;9.678;2022-10-31T14:13:44;10.73;;;6.28;;
65373;SDS011;52070;53.760;9.678;2022-10-31T14:16:16;15.30;;;6.47;;
65373;SDS011;52070;53.760;9.678;2022-10-31T14:18:48;16.92;;;7.15;;
65373;SDS011;52070;53.760;9.678;2022-10-31T14:21:25;15.20;;;7.65;;
65373;SDS011;52070;53.760;9.678;2022-10-31T14:23:55;14.82;;;7.85;;
65373;SDS011;52070;53.760;9.678;2022-10-31T14:29:21;14.52;;;6.93;;
65373;SDS011;52070;53.760;9.678;2022-10-31T14:31:54;12.95;;;6.20;;
65373;SDS011;52070;53.760;9.678;2022-10-31T14:34:24;14.45;;;6.40;;
65373;SDS011;52070;53.760;9.678;2022-10-31T14:36:59;13.38;;;6.38;;
65373;SDS011;52070;53.760;9.678;2022-10-31T14:39:35;12.77;;;6.45;;
65373;SDS011;52070;53.760;9.678;2022-10-31T14:42:11;15.50;;;7.05;;
65373;SDS011;52070;53.760;9.678;2022-10-31T14:45:01;12.88;;;7.72;;
65373;SDS011;52070;53.760;9.678;2022-10-31T14:47:41;17.13;;;8.73;;
65373;SDS011;52070;53.760;9.678;2022-10-31T14:50:20;13.65;;;7.88;;
65373;SDS011;52070;53.760;9.678;2022-10-31T14:52:51;16.45;;;7.88;;
65373;SDS011;52070;53.760;9.678;2022-10-31T14:57:50;13.82;;;6.78;;
65373;SDS011;52070;53.760;9.678;2022-10-31T15:00:20;14.15;;;7.43;;